Terminal Aerodrome Forecast
Issued by NWS Billings, MT

Home | Current Version | Previous Version | Text Only | Print | Product List | Glossary On
Versions: 1 2 3 4 5 6 7 8 9 10 11 12 13 14 15 16 17 18 19 20
000
FTUS45 KBYZ 252339
TAFSHR
TAF
KSHR 252339Z 2600/2624 30006KT P6SM VCSH SCT011 BKN019 OVC100
     FM260900 VRB05KT 1/2SM FZFG BKN008
     FM261400 VRB04KT P6SM VCFG BKN005
     FM261600 VRB04KT P6SM BKN020
     FM261800 VRB04KT P6SM SCT060=

USA.gov is the U.S. government's official web portal to all federal, state and local government web resources and services.